sensor_id;sensor_type;location;lat;lon;timestamp;pressure;altitude;pressure_sealevel;temperature;humidity
40372;BME280;28564;53.346;-6.554;2023-04-15T00:02:14;100651.02;;;9.13;43.59
40372;BME280;28564;53.346;-6.554;2023-04-15T00:04:42;100656.76;;;9.13;43.70
40372;BME280;28564;53.346;-6.554;2023-04-15T00:07:09;100658.84;;;9.11;43.72
40372;BME280;28564;53.346;-6.554;2023-04-15T00:09:36;100663.91;;;8.72;43.75
40372;BME280;28564;53.346;-6.554;2023-04-15T00:12:04;100666.66;;;8.99;43.64
40372;BME280;28564;53.346;-6.554;2023-04-15T00:14:32;100669.66;;;8.80;43.56
40372;BME280;28564;53.346;-6.554;2023-04-15T00:16:59;100673.27;;;8.91;43.52
40372;BME280;28564;53.346;-6.554;2023-04-15T00:19:26;100673.31;;;8.78;43.80
40372;BME280;28564;53.346;-6.554;2023-04-15T00:21:54;100675.94;;;8.70;44.03
40372;BME280;28564;53.346;-6.554;2023-04-15T00:24:21;100680.07;;;8.87;44.12
40372;BME280;28564;53.346;-6.554;2023-04-15T00:26:49;100685.63;;;8.65;44.15
40372;BME280;28564;53.346;-6.554;2023-04-15T00:29:16;100690.82;;;8.65;44.15
40372;BME280;28564;53.346;-6.554;2023-04-15T00:31:43;100693.72;;;8.68;44.13
40372;BME280;28564;53.346;-6.554;2023-04-15T00:34:11;100690.88;;;8.70;44.07
40372;BME280;28564;53.346;-6.554;2023-04-15T00:36:38;100691.99;;;8.91;44.07
40372;BME280;28564;53.346;-6.554;2023-04-15T00:39:06;100693.79;;;8.71;44.12
40372;BME280;28564;53.346;-6.554;2023-04-15T00:41:33;100698.33;;;8.50;44.20
40372;BME280;28564;53.346;-6.554;2023-04-15T00:44:01;100703.33;;;9.00;44.43
40372;BME280;28564;53.346;-6.554;2023-04-15T00:46:28;100710.32;;;8.94;44.57
40372;BME280;28564;53.346;-6.554;2023-04-15T00:48:56;100708.32;;;8.86;44.36
40372;BME280;28564;53.346;-6.554;2023-04-15T00:51:24;100709.05;;;8.97;44.09
40372;BME280;28564;53.346;-6.554;2023-04-15T00:53:51;100706.54;;;8.91;44.01
40372;BME280;28564;53.346;-6.554;2023-04-15T00:56:19;100707.99;;;8.82;44.05
40372;BME280;28564;53.346;-6.554;2023-04-15T00:58:48;100711.83;;;8.98;44.12
40372;BME280;28564;53.346;-6.554;2023-04-15T01:01:15;100719.74;;;8.69;44.17
40372;BME280;28564;53.346;-6.554;2023-04-15T01:03:42;100723.59;;;8.64;44.29
40372;BME280;28564;53.346;-6.554;2023-04-15T01:06:10;100721.77;;;8.82;44.37
40372;BME280;28564;53.346;-6.554;2023-04-15T01:08:37;100715.15;;;8.31;44.39
40372;BME280;28564;53.346;-6.554;2023-04-15T01:11:05;100711.30;;;8.57;44.34
40372;BME280;28564;53.346;-6.554;2023-04-15T01:13:33;100711.68;;;8.47;44.17
40372;BME280;28564;53.346;-6.554;2023-04-15T01:16:01;100714.14;;;8.49;44.30
40372;BME280;28564;53.346;-6.554;2023-04-15T01:18:28;100721.22;;;8.36;44.47
40372;BME280;28564;53.346;-6.554;2023-04-15T01:20:56;100728.85;;;8.42;44.39
40372;BME280;28564;53.346;-6.554;2023-04-15T01:23:24;100735.63;;;8.44;44.32
40372;BME280;28564;53.346;-6.554;2023-04-15T01:25:52;100737.52;;;8.61;44.28
40372;BME280;28564;53.346;-6.554;2023-04-15T01:28:19;100734.76;;;8.24;44.42
40372;BME280;28564;53.346;-6.554;2023-04-15T01:30:47;100737.87;;;8.30;44.57
40372;BME280;28564;53.346;-6.554;2023-04-15T01:33:14;100742.94;;;8.19;44.68
40372;BME280;28564;53.346;-6.554;2023-04-15T01:35:42;100745.40;;;7.89;44.77
40372;BME280;28564;53.346;-6.554;2023-04-15T01:38:10;100746.43;;;8.05;44.81
40372;BME280;28564;53.346;-6.554;2023-04-15T01:40:38;100748.93;;;7.78;44.84
40372;BME280;28564;53.346;-6.554;2023-04-15T01:43:05;100753.63;;;7.97;44.81
40372;BME280;28564;53.346;-6.554;2023-04-15T01:45:32;100757.46;;;7.91;44.76
40372;BME280;28564;53.346;-6.554;2023-04-15T01:48:00;100763.44;;;7.85;44.83
40372;BME280;28564;53.346;-6.554;2023-04-15T01:50:27;100766.43;;;7.83;44.89
40372;BME280;28564;53.346;-6.554;2023-04-15T01:52:55;100765.28;;;7.85;44.92
40372;BME280;28564;53.346;-6.554;2023-04-15T01:55:22;100759.89;;;7.82;45.02
40372;BME280;28564;53.346;-6.554;2023-04-15T01:57:49;100761.29;;;7.76;45.19
40372;BME280;28564;53.346;-6.554;2023-04-15T02:00:17;100768.13;;;7.69;45.34
40372;BME280;28564;53.346;-6.554;2023-04-15T02:02:44;100769.74;;;7.90;45.30
40372;BME280;28564;53.346;-6.554;2023-04-15T02:05:12;100775.00;;;7.58;45.29
40372;BME280;28564;53.346;-6.554;2023-04-15T02:07:39;100781.40;;;7.87;45.32
40372;BME280;28564;53.346;-6.554;2023-04-15T02:10:07;100785.25;;;7.60;45.30
40372;BME280;28564;53.346;-6.554;2023-04-15T02:12:34;100788.27;;;7.89;45.33
40372;BME280;28564;53.346;-6.554;2023-04-15T02:15:01;100788.07;;;7.63;45.33
40372;BME280;28564;53.346;-6.554;2023-04-15T02:17:29;100784.74;;;7.62;45.30
40372;BME280;28564;53.346;-6.554;2023-04-15T02:19:56;100784.58;;;7.58;45.28
40372;BME280;28564;53.346;-6.554;2023-04-15T02:22:23;100781.37;;;7.56;45.32
40372;BME280;28564;53.346;-6.554;2023-04-15T02:24:51;100779.47;;;7.52;45.34
40372;BME280;28564;53.346;-6.554;2023-04-15T02:27:18;100780.73;;;7.51;45.44
40372;BME280;28564;53.346;-6.554;2023-04-15T02:29:45;100782.42;;;7.56;45.42
40372;BME280;28564;53.346;-6.554;2023-04-15T02:32:12;100783.73;;;7.65;45.27
40372;BME280;28564;53.346;-6.554;2023-04-15T02:34:40;100784.43;;;8.13;45.27
40372;BME280;28564;53.346;-6.554;2023-04-15T02:37:07;100785.00;;;7.83;45.39
40372;BME280;28564;53.346;-6.554;2023-04-15T02:39:35;100791.89;;;7.74;45.51
40372;BME280;28564;53.346;-6.554;2023-04-15T02:42:02;100800.16;;;7.39;45.62
40372;BME280;28564;53.346;-6.554;2023-04-15T02:44:30;100805.11;;;7.34;45.62
40372;BME280;28564;53.346;-6.554;2023-04-15T02:46:57;100803.51;;;7.76;45.61
40372;BME280;28564;53.346;-6.554;2023-04-15T02:49:25;100806.81;;;7.47;45.68
40372;BME280;28564;53.346;-6.554;2023-04-15T02:51:52;100807.66;;;7.66;45.76
40372;BME280;28564;53.346;-6.554;2023-04-15T02:54:21;100810.04;;;7.59;45.98
40372;BME280;28564;53.346;-6.554;2023-04-15T02:56:48;100808.05;;;7.29;46.12
40372;BME280;28564;53.346;-6.554;2023-04-15T02:59:15;100810.64;;;6.97;46.15
40372;BME280;28564;53.346;-6.554;2023-04-15T03:01:43;100820.43;;;6.96;46.22
40372;BME280;28564;53.346;-6.554;2023-04-15T03:04:10;100826.82;;;6.96;46.17
40372;BME280;28564;53.346;-6.554;2023-04-15T03:06:37;100826.93;;;7.21;46.23
40372;BME280;28564;53.346;-6.554;2023-04-15T03:09:05;100825.66;;;7.42;46.19
40372;BME280;28564;53.346;-6.554;2023-04-15T03:11:33;100826.50;;;7.16;46.19
40372;BME280;28564;53.346;-6.554;2023-04-15T03:14:00;100832.41;;;7.06;46.25
40372;BME280;28564;53.346;-6.554;2023-04-15T03:16:27;100837.88;;;7.00;46.26
40372;BME280;28564;53.346;-6.554;2023-04-15T03:18:55;100843.03;;;6.71;46.28
40372;BME280;28564;53.346;-6.554;2023-04-15T03:21:22;100847.03;;;7.20;46.32
40372;BME280;28564;53.346;-6.554;2023-04-15T03:23:49;100849.42;;;6.99;46.43
40372;BME280;28564;53.346;-6.554;2023-04-15T03:26:26;100855.56;;;7.20;46.33
40372;BME280;28564;53.346;-6.554;2023-04-15T03:28:53;100861.27;;;7.04;46.25
40372;BME280;28564;53.346;-6.554;2023-04-15T03:31:21;100861.79;;;6.82;46.26
40372;BME280;28564;53.346;-6.554;2023-04-15T03:33:48;100861.96;;;7.26;46.36
40372;BME280;28564;53.346;-6.554;2023-04-15T03:36:15;100866.34;;;7.17;46.49
40372;BME280;28564;53.346;-6.554;2023-04-15T03:38:42;100866.58;;;6.85;46.72
40372;BME280;28564;53.346;-6.554;2023-04-15T03:41:10;100867.92;;;6.78;46.85
40372;BME280;28564;53.346;-6.554;2023-04-15T03:43:37;100876.47;;;6.99;46.92
40372;BME280;28564;53.346;-6.554;2023-04-15T03:46:04;100881.78;;;6.48;46.86
40372;BME280;28564;53.346;-6.554;2023-04-15T03:48:32;100885.73;;;6.72;46.98
40372;BME280;28564;53.346;-6.554;2023-04-15T03:50:59;100887.75;;;6.89;47.04
40372;BME280;28564;53.346;-6.554;2023-04-15T03:53:27;100896.22;;;6.60;47.09
40372;BME280;28564;53.346;-6.554;2023-04-15T03:55:54;100901.20;;;6.59;47.00
40372;BME280;28564;53.346;-6.554;2023-04-15T03:58:22;100897.31;;;6.74;47.21
40372;BME280;28564;53.346;-6.554;2023-04-15T04:00:49;100895.66;;;6.67;47.50
40372;BME280;28564;53.346;-6.554;2023-04-15T04:03:17;100892.68;;;6.66;47.68
40372;BME280;28564;53.346;-6.554;2023-04-15T04:05:44;100890.64;;;6.61;47.50
40372;BME280;28564;53.346;-6.554;2023-04-15T04:08:12;100893.97;;;6.55;47.89
40372;BME280;28564;53.346;-6.554;2023-04-15T04:10:39;100895.77;;;6.32;48.06
40372;BME280;28564;53.346;-6.554;2023-04-15T04:13:06;100898.68;;;6.71;47.86
40372;BME280;28564;53.346;-6.554;2023-04-15T04:15:33;100898.71;;;6.42;47.83
40372;BME280;28564;53.346;-6.554;2023-04-15T04:18:01;100904.27;;;6.39;47.85
40372;BME280;28564;53.346;-6.554;2023-04-15T04:20:28;100900.99;;;6.36;47.90
40372;BME280;28564;53.346;-6.554;2023-04-15T04:22:56;100903.94;;;6.60;47.98
40372;BME280;28564;53.346;-6.554;2023-04-15T04:25:23;100904.66;;;6.34;47.81
40372;BME280;28564;53.346;-6.554;2023-04-15T04:27:51;100910.90;;;6.30;47.91
40372;BME280;28564;53.346;-6.554;2023-04-15T04:30:18;100907.46;;;6.25;48.03
40372;BME280;28564;53.346;-6.554;2023-04-15T04:32:46;100912.57;;;6.47;48.23
40372;BME280;28564;53.346;-6.554;2023-04-15T04:35:13;100918.26;;;6.30;48.40
40372;BME280;28564;53.346;-6.554;2023-04-15T04:37:40;100924.83;;;6.50;47.95
40372;BME280;28564;53.346;-6.554;2023-04-15T04:40:09;100931.24;;;6.20;47.98
40372;BME280;28564;53.346;-6.554;2023-04-15T04:42:36;100932.73;;;6.21;48.03
40372;BME280;28564;53.346;-6.554;2023-04-15T04:45:04;100936.05;;;6.47;48.08
40372;BME280;28564;53.346;-6.554;2023-04-15T04:47:32;100936.84;;;6.30;48.13
40372;BME280;28564;53.346;-6.554;2023-04-15T04:49:59;100939.25;;;6.34;48.10
40372;BME280;28564;53.346;-6.554;2023-04-15T04:52:27;100940.37;;;6.36;47.93
40372;BME280;28564;53.346;-6.554;2023-04-15T04:54:54;100941.64;;;6.58;47.86
40372;BME280;28564;53.346;-6.554;2023-04-15T04:57:22;100942.74;;;6.57;47.94
40372;BME280;28564;53.346;-6.554;2023-04-15T04:59:49;100941.11;;;6.34;48.01
40372;BME280;28564;53.346;-6.554;2023-04-15T05:02:16;100939.71;;;6.34;48.37
40372;BME280;28564;53.346;-6.554;2023-04-15T05:04:44;100945.58;;;6.35;48.11
40372;BME280;28564;53.346;-6.554;2023-04-15T05:07:11;100949.56;;;6.51;48.55
40372;BME280;28564;53.346;-6.554;2023-04-15T05:09:39;100954.46;;;6.28;48.65
40372;BME280;28564;53.346;-6.554;2023-04-15T05:12:06;100962.02;;;6.54;48.51
40372;BME280;28564;53.346;-6.554;2023-04-15T05:14:33;100963.16;;;6.58;48.42
40372;BME280;28564;53.346;-6.554;2023-04-15T05:17:01;100963.87;;;6.60;48.32
40372;BME280;28564;53.346;-6.554;2023-04-15T05:19:28;100971.72;;;6.29;48.02
40372;BME280;28564;53.346;-6.554;2023-04-15T05:21:56;100975.01;;;6.24;48.09
40372;BME280;28564;53.346;-6.554;2023-04-15T05:24:23;100983.38;;;6.45;48.15
40372;BME280;28564;53.346;-6.554;2023-04-15T05:26:51;100986.45;;;6.23;48.07
40372;BME280;28564;53.346;-6.554;2023-04-15T05:29:18;100987.16;;;6.21;48.07
40372;BME280;28564;53.346;-6.554;2023-04-15T05:31:45;100989.14;;;6.24;48.00
40372;BME280;28564;53.346;-6.554;2023-04-15T05:34:13;100992.24;;;6.22;48.15
40372;BME280;28564;53.346;-6.554;2023-04-15T05:36:40;100996.63;;;6.22;48.13
40372;BME280;28564;53.346;-6.554;2023-04-15T05:39:08;101000.67;;;6.23;48.18
40372;BME280;28564;53.346;-6.554;2023-04-15T05:41:35;101005.39;;;6.38;48.20
40372;BME280;28564;53.346;-6.554;2023-04-15T05:44:02;101011.83;;;6.13;48.37
40372;BME280;28564;53.346;-6.554;2023-04-15T05:46:30;101012.68;;;6.14;48.50
40372;BME280;28564;53.346;-6.554;2023-04-15T05:48:57;101014.34;;;6.16;48.44
40372;BME280;28564;53.346;-6.554;2023-04-15T05:51:24;101018.02;;;6.45;48.39
40372;BME280;28564;53.346;-6.554;2023-04-15T05:53:52;101021.99;;;6.28;48.29
40372;BME280;28564;53.346;-6.554;2023-04-15T05:56:19;101031.93;;;6.30;48.20
40372;BME280;28564;53.346;-6.554;2023-04-15T05:58:47;101036.05;;;6.30;48.14
40372;BME280;28564;53.346;-6.554;2023-04-15T06:01:14;101036.18;;;6.31;48.15
40372;BME280;28564;53.346;-6.554;2023-04-15T06:03:42;101034.42;;;6.56;48.16
40372;BME280;28564;53.346;-6.554;2023-04-15T06:06:09;101036.59;;;6.34;48.24
40372;BME280;28564;53.346;-6.554;2023-04-15T06:08:36;101044.34;;;6.35;48.28
40372;BME280;28564;53.346;-6.554;2023-04-15T06:11:04;101050.97;;;6.36;48.30
40372;BME280;28564;53.346;-6.554;2023-04-15T06:13:31;101055.16;;;6.39;48.46
40372;BME280;28564;53.346;-6.554;2023-04-15T06:15:59;101057.75;;;6.45;48.55
40372;BME280;28564;53.346;-6.554;2023-04-15T06:18:26;101056.46;;;6.51;48.48
40372;BME280;28564;53.346;-6.554;2023-04-15T06:20:53;101051.24;;;6.56;48.43
40372;BME280;28564;53.346;-6.554;2023-04-15T06:23:21;101055.12;;;6.62;48.40
40372;BME280;28564;53.346;-6.554;2023-04-15T06:25:48;101063.69;;;6.46;48.39
40372;BME280;28564;53.346;-6.554;2023-04-15T06:28:16;101072.00;;;6.75;48.45
40372;BME280;28564;53.346;-6.554;2023-04-15T06:30:43;101068.33;;;6.82;48.68
40372;BME280;28564;53.346;-6.554;2023-04-15T06:33:10;101065.62;;;6.61;48.80
40372;BME280;28564;53.346;-6.554;2023-04-15T06:35:38;101067.90;;;6.62;48.88
40372;BME280;28564;53.346;-6.554;2023-04-15T06:38:05;101073.75;;;6.88;48.97
40372;BME280;28564;53.346;-6.554;2023-04-15T06:40:33;101079.73;;;6.92;49.03
40372;BME280;28564;53.346;-6.554;2023-04-15T06:43:00;101083.28;;;6.77;49.11
40372;BME280;28564;53.346;-6.554;2023-04-15T06:45:28;101086.48;;;6.85;49.04
40372;BME280;28564;53.346;-6.554;2023-04-15T06:47:55;101091.20;;;6.96;48.98
40372;BME280;28564;53.346;-6.554;2023-04-15T06:50:22;101096.15;;;6.79;48.95
40372;BME280;28564;53.346;-6.554;2023-04-15T06:52:50;101102.92;;;7.12;48.91
40372;BME280;28564;53.346;-6.554;2023-04-15T06:55:17;101108.90;;;6.93;48.98
40372;BME280;28564;53.346;-6.554;2023-04-15T06:57:44;101113.46;;;7.05;49.00
40372;BME280;28564;53.346;-6.554;2023-04-15T07:00:13;101118.74;;;7.15;49.03
40372;BME280;28564;53.346;-6.554;2023-04-15T07:02:40;101125.56;;;7.28;49.31
40372;BME280;28564;53.346;-6.554;2023-04-15T07:05:08;101133.07;;;7.08;49.42
40372;BME280;28564;53.346;-6.554;2023-04-15T07:07:35;101136.96;;;7.34;49.54
40372;BME280;28564;53.346;-6.554;2023-04-15T07:10:03;101138.76;;;7.66;49.66
40372;BME280;28564;53.346;-6.554;2023-04-15T07:12:30;101142.93;;;7.47;49.64
40372;BME280;28564;53.346;-6.554;2023-04-15T07:14:57;101149.36;;;7.66;49.72
40372;BME280;28564;53.346;-6.554;2023-04-15T07:17:25;101152.23;;;7.73;49.84
40372;BME280;28564;53.346;-6.554;2023-04-15T07:19:52;101155.35;;;7.80;49.99
40372;BME280;28564;53.346;-6.554;2023-04-15T07:22:19;101157.70;;;7.86;49.98
40372;BME280;28564;53.346;-6.554;2023-04-15T07:24:47;101159.22;;;7.95;50.18
40372;BME280;28564;53.346;-6.554;2023-04-15T07:27:14;101158.28;;;7.96;50.15
40372;BME280;28564;53.346;-6.554;2023-04-15T07:29:41;101162.57;;;8.05;50.25
40372;BME280;28564;53.346;-6.554;2023-04-15T07:32:09;101165.68;;;8.13;50.39
40372;BME280;28564;53.346;-6.554;2023-04-15T07:34:36;101172.30;;;8.23;50.41
40372;BME280;28564;53.346;-6.554;2023-04-15T07:37:03;101178.27;;;8.34;50.48
40372;BME280;28564;53.346;-6.554;2023-04-15T07:39:31;101183.08;;;8.23;50.49
40372;BME280;28564;53.346;-6.554;2023-04-15T07:41:58;101182.41;;;8.32;50.61
40372;BME280;28564;53.346;-6.554;2023-04-15T07:44:26;101183.37;;;8.65;50.67
40372;BME280;28564;53.346;-6.554;2023-04-15T07:46:53;101188.21;;;8.67;50.67
40372;BME280;28564;53.346;-6.554;2023-04-15T07:49:20;101191.73;;;8.54;50.58
40372;BME280;28564;53.346;-6.554;2023-04-15T07:51:48;101192.33;;;8.62;50.79
40372;BME280;28564;53.346;-6.554;2023-04-15T07:54:15;101188.41;;;8.50;50.76
40372;BME280;28564;53.346;-6.554;2023-04-15T07:56:43;101189.63;;;8.58;50.69
40372;BME280;28564;53.346;-6.554;2023-04-15T07:59:10;101192.34;;;8.68;50.56
40372;BME280;28564;53.346;-6.554;2023-04-15T08:01:37;101194.06;;;8.77;50.31
40372;BME280;28564;53.346;-6.554;2023-04-15T08:04:05;101193.61;;;8.89;50.41
40372;BME280;28564;53.346;-6.554;2023-04-15T08:06:32;101191.40;;;8.99;50.41
40372;BME280;28564;53.346;-6.554;2023-04-15T08:08:59;101192.36;;;8.84;50.27
40372;BME280;28564;53.346;-6.554;2023-04-15T08:11:27;101192.57;;;9.19;49.95
40372;BME280;28564;53.346;-6.554;2023-04-15T08:13:54;101194.24;;;8.98;49.99
40372;BME280;28564;53.346;-6.554;2023-04-15T08:16:23;101191.33;;;9.10;50.09
40372;BME280;28564;53.346;-6.554;2023-04-15T08:18:52;101191.63;;;9.47;49.85
40372;BME280;28564;53.346;-6.554;2023-04-15T08:21:19;101191.74;;;9.28;49.88
40372;BME280;28564;53.346;-6.554;2023-04-15T08:23:49;101195.44;;;9.36;49.81
40372;BME280;28564;53.346;-6.554;2023-04-15T08:26:17;101197.95;;;9.39;49.63
40372;BME280;28564;53.346;-6.554;2023-04-15T08:28:45;101197.33;;;9.20;49.52
40372;BME280;28564;53.346;-6.554;2023-04-15T08:31:13;101202.08;;;9.70;49.40
40372;BME280;28564;53.346;-6.554;2023-04-15T08:33:41;101207.02;;;9.50;49.52
40372;BME280;28564;53.346;-6.554;2023-04-15T08:36:08;101213.10;;;9.84;49.72
40372;BME280;28564;53.346;-6.554;2023-04-15T08:38:36;101214.75;;;9.64;49.41
40372;BME280;28564;53.346;-6.554;2023-04-15T08:41:06;101216.41;;;10.03;49.37
40372;BME280;28564;53.346;-6.554;2023-04-15T08:43:40;101220.17;;;9.82;49.42
40372;BME280;28564;53.346;-6.554;2023-04-15T08:46:11;101223.72;;;9.66;49.11
40372;BME280;28564;53.346;-6.554;2023-04-15T08:48:39;101228.46;;;9.70;49.08
40372;BME280;28564;53.346;-6.554;2023-04-15T08:51:06;101230.41;;;9.81;48.85
40372;BME280;28564;53.346;-6.554;2023-04-15T08:53:34;101232.28;;;9.84;49.07
40372;BME280;28564;53.346;-6.554;2023-04-15T08:56:03;101232.59;;;9.95;49.20
40372;BME280;28564;53.346;-6.554;2023-04-15T08:58:33;101230.16;;;10.03;48.99
40372;BME280;28564;53.346;-6.554;2023-04-15T09:03:51;101232.80;;;10.20;48.44
40372;BME280;28564;53.346;-6.554;2023-04-15T09:06:20;101234.53;;;10.34;48.27
40372;BME280;28564;53.346;-6.554;2023-04-15T09:08:47;101231.00;;;10.35;47.85
40372;BME280;28564;53.346;-6.554;2023-04-15T09:11:14;101231.99;;;10.38;48.25
40372;BME280;28564;53.346;-6.554;2023-04-15T09:13:42;101237.23;;;10.64;48.20
40372;BME280;28564;53.346;-6.554;2023-04-15T09:16:09;101239.81;;;10.62;48.25
40372;BME280;28564;53.346;-6.554;2023-04-15T09:18:37;101244.70;;;10.71;48.15
40372;BME280;28564;53.346;-6.554;2023-04-15T09:21:07;101246.62;;;10.61;48.08
40372;BME280;28564;53.346;-6.554;2023-04-15T09:23:34;101249.06;;;10.68;47.85
40372;BME280;28564;53.346;-6.554;2023-04-15T09:26:02;101249.69;;;10.99;46.90
40372;BME280;28564;53.346;-6.554;2023-04-15T09:28:30;101246.11;;;10.73;46.79
40372;BME280;28564;53.346;-6.554;2023-04-15T09:30:57;101248.97;;;10.76;46.74
40372;BME280;28564;53.346;-6.554;2023-04-15T09:33:26;101252.48;;;10.81;46.52
40372;BME280;28564;53.346;-6.554;2023-04-15T09:35:59;101252.49;;;10.88;46.68
40372;BME280;28564;53.346;-6.554;2023-04-15T09:38:27;101254.34;;;10.98;46.65
40372;BME280;28564;53.346;-6.554;2023-04-15T09:40:54;101254.19;;;11.25;45.95
40372;BME280;28564;53.346;-6.554;2023-04-15T09:43:22;101249.12;;;10.88;45.61
40372;BME280;28564;53.346;-6.554;2023-04-15T09:45:51;101247.73;;;11.18;45.51
40372;BME280;28564;53.346;-6.554;2023-04-15T09:48:19;101248.80;;;11.19;45.46
40372;BME280;28564;53.346;-6.554;2023-04-15T09:50:47;101250.82;;;11.27;45.56
40372;BME280;28564;53.346;-6.554;2023-04-15T09:53:16;101252.10;;;11.49;45.11
40372;BME280;28564;53.346;-6.554;2023-04-15T09:55:45;101245.64;;;11.82;44.85
40372;BME280;28564;53.346;-6.554;2023-04-15T09:58:17;101247.53;;;11.68;44.26
40372;BME280;28564;53.346;-6.554;2023-04-15T10:00:46;101250.01;;;11.78;43.54
40372;BME280;28564;53.346;-6.554;2023-04-15T10:03:18;101251.03;;;11.68;43.60
40372;BME280;28564;53.346;-6.554;2023-04-15T10:05:49;101254.69;;;12.01;43.77
40372;BME280;28564;53.346;-6.554;2023-04-15T10:08:18;101255.36;;;11.86;43.51
40372;BME280;28564;53.346;-6.554;2023-04-15T10:10:47;101258.13;;;11.60;43.30
40372;BME280;28564;53.346;-6.554;2023-04-15T10:13:17;101260.41;;;11.69;43.17
40372;BME280;28564;53.346;-6.554;2023-04-15T10:15:49;101254.21;;;11.90;43.11
40372;BME280;28564;53.346;-6.554;2023-04-15T10:18:19;101254.57;;;12.16;42.74
40372;BME280;28564;53.346;-6.554;2023-04-15T10:20:47;101251.60;;;12.31;42.84
40372;BME280;28564;53.346;-6.554;2023-04-15T10:23:15;101252.88;;;12.36;42.40
40372;BME280;28564;53.346;-6.554;2023-04-15T10:25:42;101256.33;;;12.40;41.80
40372;BME280;28564;53.346;-6.554;2023-04-15T10:28:10;101256.48;;;12.44;42.05
40372;BME280;28564;53.346;-6.554;2023-04-15T10:30:38;101255.81;;;12.58;42.05
40372;BME280;28564;53.346;-6.554;2023-04-15T10:33:05;101255.19;;;12.56;42.04
40372;BME280;28564;53.346;-6.554;2023-04-15T10:35:35;101257.72;;;12.95;41.77
40372;BME280;28564;53.346;-6.554;2023-04-15T10:38:30;101258.06;;;13.10;41.61
40372;BME280;28564;53.346;-6.554;2023-04-15T10:41:11;101257.90;;;13.33;40.35
40372;BME280;28564;53.346;-6.554;2023-04-15T10:43:39;101261.08;;;12.98;39.54
40372;BME280;28564;53.346;-6.554;2023-04-15T10:46:11;101259.72;;;13.01;39.37
40372;BME280;28564;53.346;-6.554;2023-04-15T10:48:38;101257.42;;;13.38;39.89
40372;BME280;28564;53.346;-6.554;2023-04-15T10:51:13;101252.80;;;13.36;39.62
40372;BME280;28564;53.346;-6.554;2023-04-15T10:53:41;101251.29;;;13.55;39.47
40372;BME280;28564;53.346;-6.554;2023-04-15T10:56:09;101253.64;;;13.84;39.81
40372;BME280;28564;53.346;-6.554;2023-04-15T10:58:44;101257.02;;;13.87;39.78
40372;BME280;28564;53.346;-6.554;2023-04-15T11:01:12;101256.91;;;14.09;39.48
40372;BME280;28564;53.346;-6.554;2023-04-15T11:03:41;101256.15;;;14.39;38.55
40372;BME280;28564;53.346;-6.554;2023-04-15T11:06:09;101254.86;;;14.64;38.40
40372;BME280;28564;53.346;-6.554;2023-04-15T11:09:11;101255.16;;;14.87;37.06
40372;BME280;28564;53.346;-6.554;2023-04-15T11:12:12;101252.72;;;14.75;37.12
40372;BME280;28564;53.346;-6.554;2023-04-15T11:14:40;101247.07;;;14.94;37.54
40372;BME280;28564;53.346;-6.554;2023-04-15T11:17:07;101249.99;;;15.03;37.41
40372;BME280;28564;53.346;-6.554;2023-04-15T11:19:36;101249.03;;;15.22;36.38
40372;BME280;28564;53.346;-6.554;2023-04-15T11:22:08;101242.94;;;15.34;36.05
40372;BME280;28564;53.346;-6.554;2023-04-15T11:24:36;101243.99;;;15.48;36.44
40372;BME280;28564;53.346;-6.554;2023-04-15T11:27:03;101248.80;;;15.91;35.85
40372;BME280;28564;53.346;-6.554;2023-04-15T11:29:31;101247.33;;;16.13;35.59
40372;BME280;28564;53.346;-6.554;2023-04-15T11:32:05;101245.83;;;16.16;35.98
40372;BME280;28564;53.346;-6.554;2023-04-15T11:34:32;101250.91;;;16.53;35.86
40372;BME280;28564;53.346;-6.554;2023-04-15T11:37:02;101251.94;;;16.53;35.59
40372;BME280;28564;53.346;-6.554;2023-04-15T11:39:30;101252.46;;;16.69;35.48
40372;BME280;28564;53.346;-6.554;2023-04-15T11:41:58;101253.23;;;16.94;34.51
40372;BME280;28564;53.346;-6.554;2023-04-15T11:44:25;101254.33;;;17.11;34.05
40372;BME280;28564;53.346;-6.554;2023-04-15T11:46:54;101252.94;;;16.93;34.10
40372;BME280;28564;53.346;-6.554;2023-04-15T11:49:28;101255.22;;;17.09;34.61
40372;BME280;28564;53.346;-6.554;2023-04-15T11:51:56;101253.00;;;17.33;34.40
40372;BME280;28564;53.346;-6.554;2023-04-15T11:54:23;101251.08;;;17.34;34.51
40372;BME280;28564;53.346;-6.554;2023-04-15T11:56:50;101246.30;;;17.79;34.03
40372;BME280;28564;53.346;-6.554;2023-04-15T11:59:18;101245.90;;;17.29;33.46
40372;BME280;28564;53.346;-6.554;2023-04-15T12:01:45;101243.23;;;17.41;33.59
40372;BME280;28564;53.346;-6.554;2023-04-15T12:04:13;101240.79;;;17.86;33.69
40372;BME280;28564;53.346;-6.554;2023-04-15T12:06:40;101242.88;;;18.08;33.09
40372;BME280;28564;53.346;-6.554;2023-04-15T12:09:08;101244.64;;;17.71;33.28
40372;BME280;28564;53.346;-6.554;2023-04-15T12:11:38;101246.95;;;18.25;33.12
40372;BME280;28564;53.346;-6.554;2023-04-15T12:14:08;101243.74;;;17.84;32.34
40372;BME280;28564;53.346;-6.554;2023-04-15T12:16:38;101242.63;;;18.19;32.63
40372;BME280;28564;53.346;-6.554;2023-04-15T12:19:08;101240.44;;;18.08;32.72
40372;BME280;28564;53.346;-6.554;2023-04-15T12:21:37;101240.06;;;18.08;33.28
40372;BME280;28564;53.346;-6.554;2023-04-15T12:24:06;101242.27;;;17.94;33.19
40372;BME280;28564;53.346;-6.554;2023-04-15T12:26:36;101244.45;;;17.94;33.23
40372;BME280;28564;53.346;-6.554;2023-04-15T12:29:06;101244.61;;;18.31;32.54
40372;BME280;28564;53.346;-6.554;2023-04-15T12:31:34;101239.45;;;18.66;32.20
40372;BME280;28564;53.346;-6.554;2023-04-15T12:34:02;101240.87;;;18.91;32.07
40372;BME280;28564;53.346;-6.554;2023-04-15T12:36:30;101248.29;;;18.82;31.63
40372;BME280;28564;53.346;-6.554;2023-04-15T12:38:57;101248.52;;;18.94;31.53
40372;BME280;28564;53.346;-6.554;2023-04-15T12:41:24;101247.01;;;19.05;31.16
40372;BME280;28564;53.346;-6.554;2023-04-15T12:43:51;101244.83;;;19.03;31.05
40372;BME280;28564;53.346;-6.554;2023-04-15T12:46:18;101246.84;;;18.82;31.64
40372;BME280;28564;53.346;-6.554;2023-04-15T12:48:45;101249.90;;;19.25;31.77
40372;BME280;28564;53.346;-6.554;2023-04-15T12:51:13;101251.06;;;19.26;31.82
40372;BME280;28564;53.346;-6.554;2023-04-15T12:53:40;101252.84;;;19.43;31.13
40372;BME280;28564;53.346;-6.554;2023-04-15T12:56:07;101249.77;;;19.37;31.00